sensor_id;sensor_type;location;lat;lon;timestamp;pressure;altitude;pressure_sealevel;temperature;humidity
63903;BME280;50072;50.678;13.938;2023-07-31T00:00:58;99362.53;;;13.01;100.00
63903;BME280;50072;50.678;13.938;2023-07-31T00:03:27;99359.78;;;13.03;100.00
63903;BME280;50072;50.678;13.938;2023-07-31T00:05:53;99357.03;;;13.04;100.00
63903;BME280;50072;50.678;13.938;2023-07-31T00:08:19;99354.28;;;13.06;100.00
63903;BME280;50072;50.678;13.938;2023-07-31T00:10:45;99356.41;;;12.98;100.00
63903;BME280;50072;50.678;13.938;2023-07-31T00:13:11;99359.63;;;12.84;100.00
63903;BME280;50072;50.678;13.938;2023-07-31T00:15:36;99366.81;;;12.83;100.00
63903;BME280;50072;50.678;13.938;2023-07-31T00:18:03;99362.38;;;12.82;100.00
63903;BME280;50072;50.678;13.938;2023-07-31T00:20:30;99363.47;;;12.76;100.00
63903;BME280;50072;50.678;13.938;2023-07-31T00:22:56;99366.34;;;12.72;100.00
63903;BME280;50072;50.678;13.938;2023-07-31T00:25:22;99364.72;;;12.68;100.00
63903;BME280;50072;50.678;13.938;2023-07-31T00:27:48;99363.72;;;12.70;100.00
63903;BME280;50072;50.678;13.938;2023-07-31T00:30:14;99359.22;;;12.71;100.00
63903;BME280;50072;50.678;13.938;2023-07-31T00:32:40;99360.28;;;12.67;100.00
63903;BME280;50072;50.678;13.938;2023-07-31T00:35:06;99371.25;;;12.60;100.00
63903;BME280;50072;50.678;13.938;2023-07-31T00:37:32;99358.69;;;12.61;100.00
63903;BME280;50072;50.678;13.938;2023-07-31T00:39:58;99364.31;;;12.55;100.00
63903;BME280;50072;50.678;13.938;2023-07-31T00:42:25;99371.03;;;12.43;100.00
63903;BME280;50072;50.678;13.938;2023-07-31T00:44:51;99364.09;;;12.37;100.00
63903;BME280;50072;50.678;13.938;2023-07-31T00:47:17;99363.19;;;12.37;100.00
63903;BME280;50072;50.678;13.938;2023-07-31T00:49:43;99354.09;;;12.41;100.00
63903;BME280;50072;50.678;13.938;2023-07-31T00:52:10;99361.16;;;12.43;100.00
63903;BME280;50072;50.678;13.938;2023-07-31T00:54:36;99355.78;;;12.43;100.00
63903;BME280;50072;50.678;13.938;2023-07-31T00:57:02;99353.34;;;12.37;100.00
63903;BME280;50072;50.678;13.938;2023-07-31T00:59:28;99354.66;;;12.25;100.00
63903;BME280;50072;50.678;13.938;2023-07-31T01:01:54;99350.44;;;12.18;100.00
63903;BME280;50072;50.678;13.938;2023-07-31T01:04:20;99359.34;;;12.20;100.00
63903;BME280;50072;50.678;13.938;2023-07-31T01:12:02;99351.97;;;12.02;100.00
63903;BME280;50072;50.678;13.938;2023-07-31T01:14:29;99355.94;;;12.15;100.00
63903;BME280;50072;50.678;13.938;2023-07-31T01:16:55;99348.19;;;12.07;100.00
63903;BME280;50072;50.678;13.938;2023-07-31T01:19:26;99354.28;;;11.86;100.00
63903;BME280;50072;50.678;13.938;2023-07-31T01:22:21;99351.44;;;11.90;100.00
63903;BME280;50072;50.678;13.938;2023-07-31T01:25:05;99344.78;;;12.02;100.00
63903;BME280;50072;50.678;13.938;2023-07-31T01:27:44;99345.31;;;12.12;100.00
63903;BME280;50072;50.678;13.938;2023-07-31T01:30:16;99345.09;;;12.18;100.00
63903;BME280;50072;50.678;13.938;2023-07-31T01:32:47;99341.25;;;12.25;100.00
63903;BME280;50072;50.678;13.938;2023-07-31T01:35:14;99333.91;;;12.31;100.00
63903;BME280;50072;50.678;13.938;2023-07-31T01:37:42;99328.41;;;12.34;100.00
63903;BME280;50072;50.678;13.938;2023-07-31T01:40:09;99337.25;;;12.37;100.00
63903;BME280;50072;50.678;13.938;2023-07-31T01:42:35;99327.25;;;12.41;100.00
63903;BME280;50072;50.678;13.938;2023-07-31T01:45:01;99323.81;;;12.37;100.00
63903;BME280;50072;50.678;13.938;2023-07-31T01:47:28;99324.00;;;12.33;100.00
63903;BME280;50072;50.678;13.938;2023-07-31T01:49:54;99326.31;;;12.18;100.00
63903;BME280;50072;50.678;13.938;2023-07-31T01:52:19;99318.50;;;12.12;100.00
63903;BME280;50072;50.678;13.938;2023-07-31T01:54:45;99322.09;;;12.11;100.00
63903;BME280;50072;50.678;13.938;2023-07-31T01:57:11;99316.00;;;12.07;100.00
63903;BME280;50072;50.678;13.938;2023-07-31T01:59:37;99319.19;;;11.94;100.00
63903;BME280;50072;50.678;13.938;2023-07-31T02:02:02;99321.09;;;11.88;100.00
63903;BME280;50072;50.678;13.938;2023-07-31T02:04:29;99317.72;;;11.83;100.00
63903;BME280;50072;50.678;13.938;2023-07-31T02:06:57;99313.41;;;11.79;100.00
63903;BME280;50072;50.678;13.938;2023-07-31T02:09:23;99312.38;;;11.83;100.00
63903;BME280;50072;50.678;13.938;2023-07-31T02:11:49;99311.53;;;11.81;100.00
63903;BME280;50072;50.678;13.938;2023-07-31T02:14:14;99308.75;;;11.84;100.00
63903;BME280;50072;50.678;13.938;2023-07-31T02:16:40;99303.28;;;11.87;100.00
63903;BME280;50072;50.678;13.938;2023-07-31T02:19:08;99305.84;;;11.90;100.00
63903;BME280;50072;50.678;13.938;2023-07-31T02:21:35;99302.25;;;11.91;100.00
63903;BME280;50072;50.678;13.938;2023-07-31T02:24:00;99295.31;;;11.86;100.00
63903;BME280;50072;50.678;13.938;2023-07-31T02:26:26;99297.91;;;11.87;100.00
63903;BME280;50072;50.678;13.938;2023-07-31T02:28:53;99299.56;;;11.91;100.00
63903;BME280;50072;50.678;13.938;2023-07-31T02:31:19;99291.91;;;12.06;100.00
63903;BME280;50072;50.678;13.938;2023-07-31T02:33:44;99293.69;;;12.05;100.00
63903;BME280;50072;50.678;13.938;2023-07-31T02:36:11;99290.94;;;12.08;100.00
63903;BME280;50072;50.678;13.938;2023-07-31T02:38:37;99285.59;;;12.07;100.00
63903;BME280;50072;50.678;13.938;2023-07-31T02:41:03;99293.44;;;12.13;100.00
63903;BME280;50072;50.678;13.938;2023-07-31T02:43:30;99292.59;;;12.11;100.00
63903;BME280;50072;50.678;13.938;2023-07-31T02:45:57;99291.31;;;11.98;100.00
63903;BME280;50072;50.678;13.938;2023-07-31T02:48:22;99287.78;;;11.97;100.00
63903;BME280;50072;50.678;13.938;2023-07-31T02:50:48;99287.94;;;11.91;100.00
63903;BME280;50072;50.678;13.938;2023-07-31T02:53:14;99286.66;;;12.03;100.00
63903;BME280;50072;50.678;13.938;2023-07-31T02:55:40;99293.56;;;12.10;100.00
63903;BME280;50072;50.678;13.938;2023-07-31T02:58:06;99291.28;;;12.23;100.00
63903;BME280;50072;50.678;13.938;2023-07-31T03:00:32;99301.59;;;12.34;100.00
63903;BME280;50072;50.678;13.938;2023-07-31T03:02:58;99296.28;;;12.32;100.00
63903;BME280;50072;50.678;13.938;2023-07-31T03:05:23;99294.50;;;12.33;100.00
63903;BME280;50072;50.678;13.938;2023-07-31T03:07:49;99291.69;;;12.36;100.00
63903;BME280;50072;50.678;13.938;2023-07-31T03:10:15;99300.25;;;12.46;100.00
63903;BME280;50072;50.678;13.938;2023-07-31T03:12:41;99285.75;;;12.50;100.00
63903;BME280;50072;50.678;13.938;2023-07-31T03:15:07;99287.47;;;12.52;100.00
63903;BME280;50072;50.678;13.938;2023-07-31T03:17:33;99280.22;;;12.54;100.00
63903;BME280;50072;50.678;13.938;2023-07-31T03:19:59;99282.78;;;12.57;100.00
63903;BME280;50072;50.678;13.938;2023-07-31T03:22:25;99279.13;;;12.60;100.00
63903;BME280;50072;50.678;13.938;2023-07-31T03:24:51;99284.28;;;12.65;100.00
63903;BME280;50072;50.678;13.938;2023-07-31T03:27:16;99282.34;;;12.68;100.00
63903;BME280;50072;50.678;13.938;2023-07-31T03:29:42;99285.94;;;12.69;100.00
63903;BME280;50072;50.678;13.938;2023-07-31T03:32:08;99285.66;;;12.75;100.00
63903;BME280;50072;50.678;13.938;2023-07-31T03:34:34;99281.00;;;12.80;100.00
63903;BME280;50072;50.678;13.938;2023-07-31T03:37:00;99282.44;;;12.89;100.00
63903;BME280;50072;50.678;13.938;2023-07-31T03:39:27;99292.31;;;12.88;100.00
63903;BME280;50072;50.678;13.938;2023-07-31T03:41:52;99292.19;;;12.91;100.00
63903;BME280;50072;50.678;13.938;2023-07-31T03:44:18;99298.06;;;13.01;100.00
63903;BME280;50072;50.678;13.938;2023-07-31T03:46:44;99302.19;;;13.10;100.00
63903;BME280;50072;50.678;13.938;2023-07-31T03:49:10;99300.91;;;13.19;100.00
63903;BME280;50072;50.678;13.938;2023-07-31T03:51:35;99296.25;;;13.22;100.00
63903;BME280;50072;50.678;13.938;2023-07-31T03:54:01;99293.47;;;13.25;100.00
63903;BME280;50072;50.678;13.938;2023-07-31T03:56:27;99294.41;;;13.24;100.00
63903;BME280;50072;50.678;13.938;2023-07-31T03:58:53;99303.97;;;13.32;100.00
63903;BME280;50072;50.678;13.938;2023-07-31T04:01:19;99299.31;;;13.37;100.00
63903;BME280;50072;50.678;13.938;2023-07-31T04:03:45;99296.63;;;13.37;100.00
63903;BME280;50072;50.678;13.938;2023-07-31T04:06:11;99296.66;;;13.35;100.00
63903;BME280;50072;50.678;13.938;2023-07-31T04:08:37;99299.16;;;13.40;100.00
63903;BME280;50072;50.678;13.938;2023-07-31T04:11:02;99294.78;;;13.37;100.00
63903;BME280;50072;50.678;13.938;2023-07-31T04:13:29;99292.91;;;13.39;100.00
63903;BME280;50072;50.678;13.938;2023-07-31T04:15:55;99294.38;;;13.46;100.00
63903;BME280;50072;50.678;13.938;2023-07-31T04:18:21;99280.50;;;13.57;100.00
63903;BME280;50072;50.678;13.938;2023-07-31T04:20:47;99280.13;;;13.65;100.00
63903;BME280;50072;50.678;13.938;2023-07-31T04:23:13;99289.19;;;13.64;100.00
63903;BME280;50072;50.678;13.938;2023-07-31T04:25:38;99280.34;;;13.60;100.00
63903;BME280;50072;50.678;13.938;2023-07-31T04:28:04;99287.47;;;13.61;100.00
63903;BME280;50072;50.678;13.938;2023-07-31T04:30:30;99283.88;;;13.62;100.00
63903;BME280;50072;50.678;13.938;2023-07-31T04:32:56;99279.28;;;13.64;100.00
63903;BME280;50072;50.678;13.938;2023-07-31T04:35:22;99270.28;;;13.66;100.00
63903;BME280;50072;50.678;13.938;2023-07-31T04:37:48;99276.44;;;13.68;100.00
63903;BME280;50072;50.678;13.938;2023-07-31T04:40:15;99277.00;;;13.76;100.00
63903;BME280;50072;50.678;13.938;2023-07-31T04:42:41;99272.16;;;13.84;100.00
63903;BME280;50072;50.678;13.938;2023-07-31T04:45:08;99270.09;;;13.89;100.00
63903;BME280;50072;50.678;13.938;2023-07-31T04:47:34;99270.31;;;14.05;100.00
63903;BME280;50072;50.678;13.938;2023-07-31T04:50:00;99261.88;;;14.13;100.00
63903;BME280;50072;50.678;13.938;2023-07-31T04:52:25;99262.28;;;14.04;100.00
63903;BME280;50072;50.678;13.938;2023-07-31T04:54:51;99259.41;;;14.08;100.00
63903;BME280;50072;50.678;13.938;2023-07-31T04:57:17;99264.06;;;14.24;100.00
63903;BME280;50072;50.678;13.938;2023-07-31T04:59:43;99262.84;;;14.31;100.00
63903;BME280;50072;50.678;13.938;2023-07-31T05:02:11;99258.47;;;14.28;100.00
63903;BME280;50072;50.678;13.938;2023-07-31T05:04:37;99269.88;;;14.33;100.00
63903;BME280;50072;50.678;13.938;2023-07-31T05:07:03;99264.22;;;14.40;100.00
63903;BME280;50072;50.678;13.938;2023-07-31T05:09:30;99260.44;;;14.44;100.00
63903;BME280;50072;50.678;13.938;2023-07-31T05:11:56;99255.50;;;14.54;100.00
63903;BME280;50072;50.678;13.938;2023-07-31T05:14:22;99268.56;;;14.61;100.00
63903;BME280;50072;50.678;13.938;2023-07-31T05:16:48;99266.28;;;14.73;100.00
63903;BME280;50072;50.678;13.938;2023-07-31T05:19:13;99263.41;;;14.76;100.00
63903;BME280;50072;50.678;13.938;2023-07-31T05:21:40;99254.31;;;14.78;100.00
63903;BME280;50072;50.678;13.938;2023-07-31T05:24:06;99257.53;;;14.87;100.00
63903;BME280;50072;50.678;13.938;2023-07-31T05:26:32;99255.69;;;14.87;100.00
63903;BME280;50072;50.678;13.938;2023-07-31T05:28:58;99246.44;;;14.93;100.00
63903;BME280;50072;50.678;13.938;2023-07-31T05:31:24;99251.91;;;15.09;100.00
63903;BME280;50072;50.678;13.938;2023-07-31T05:33:50;99247.97;;;15.16;100.00
63903;BME280;50072;50.678;13.938;2023-07-31T05:36:17;99240.94;;;15.31;100.00
63903;BME280;50072;50.678;13.938;2023-07-31T05:38:42;99232.59;;;15.35;100.00
63903;BME280;50072;50.678;13.938;2023-07-31T05:41:14;99238.06;;;15.34;100.00
63903;BME280;50072;50.678;13.938;2023-07-31T05:43:40;99232.25;;;15.42;100.00
63903;BME280;50072;50.678;13.938;2023-07-31T05:46:06;99240.13;;;15.46;100.00
63903;BME280;50072;50.678;13.938;2023-07-31T05:48:32;99240.50;;;15.56;100.00
63903;BME280;50072;50.678;13.938;2023-07-31T05:51:00;99248.44;;;15.77;100.00
63903;BME280;50072;50.678;13.938;2023-07-31T05:53:25;99246.41;;;15.82;100.00
63903;BME280;50072;50.678;13.938;2023-07-31T05:55:52;99239.53;;;15.92;100.00
63903;BME280;50072;50.678;13.938;2023-07-31T05:58:18;99250.63;;;16.03;100.00
63903;BME280;50072;50.678;13.938;2023-07-31T06:00:45;99247.31;;;15.98;100.00
63903;BME280;50072;50.678;13.938;2023-07-31T06:03:10;99251.56;;;16.02;100.00
63903;BME280;50072;50.678;13.938;2023-07-31T06:05:36;99248.59;;;15.91;100.00
63903;BME280;50072;50.678;13.938;2023-07-31T06:08:02;99243.03;;;15.94;100.00
63903;BME280;50072;50.678;13.938;2023-07-31T06:10:28;99253.44;;;16.18;100.00
63903;BME280;50072;50.678;13.938;2023-07-31T06:12:54;99247.63;;;16.42;100.00
63903;BME280;50072;50.678;13.938;2023-07-31T06:15:20;99251.56;;;16.52;100.00
63903;BME280;50072;50.678;13.938;2023-07-31T06:17:45;99257.56;;;16.57;100.00
63903;BME280;50072;50.678;13.938;2023-07-31T06:20:13;99259.41;;;16.56;100.00
63903;BME280;50072;50.678;13.938;2023-07-31T06:22:38;99247.56;;;16.59;100.00
63903;BME280;50072;50.678;13.938;2023-07-31T06:25:04;99247.22;;;16.65;100.00
63903;BME280;50072;50.678;13.938;2023-07-31T06:27:31;99246.06;;;16.69;100.00
63903;BME280;50072;50.678;13.938;2023-07-31T06:29:57;99237.44;;;16.79;100.00
63903;BME280;50072;50.678;13.938;2023-07-31T06:32:23;99246.06;;;16.85;100.00
63903;BME280;50072;50.678;13.938;2023-07-31T06:34:49;99243.03;;;16.91;100.00
63903;BME280;50072;50.678;13.938;2023-07-31T06:37:15;99254.00;;;17.04;100.00
63903;BME280;50072;50.678;13.938;2023-07-31T06:39:40;99247.19;;;17.13;100.00
63903;BME280;50072;50.678;13.938;2023-07-31T06:42:06;99233.44;;;17.32;100.00
63903;BME280;50072;50.678;13.938;2023-07-31T06:44:32;99233.84;;;17.40;100.00
63903;BME280;50072;50.678;13.938;2023-07-31T06:46:58;99232.56;;;17.62;100.00
63903;BME280;50072;50.678;13.938;2023-07-31T06:49:24;99233.34;;;17.79;100.00
63903;BME280;50072;50.678;13.938;2023-07-31T06:51:49;99236.81;;;17.81;100.00
63903;BME280;50072;50.678;13.938;2023-07-31T06:54:15;99242.72;;;17.73;100.00
63903;BME280;50072;50.678;13.938;2023-07-31T06:56:41;99240.66;;;17.62;100.00
63903;BME280;50072;50.678;13.938;2023-07-31T06:59:07;99247.22;;;17.58;100.00
63903;BME280;50072;50.678;13.938;2023-07-31T07:01:33;99238.50;;;17.53;100.00
63903;BME280;50072;50.678;13.938;2023-07-31T07:03:59;99240.38;;;17.67;100.00
63903;BME280;50072;50.678;13.938;2023-07-31T07:06:25;99232.75;;;17.73;100.00
63903;BME280;50072;50.678;13.938;2023-07-31T07:08:51;99233.16;;;17.67;100.00
63903;BME280;50072;50.678;13.938;2023-07-31T07:11:17;99226.56;;;17.71;100.00
63903;BME280;50072;50.678;13.938;2023-07-31T07:13:43;99221.91;;;17.59;100.00
63903;BME280;50072;50.678;13.938;2023-07-31T07:16:08;99231.63;;;17.47;100.00
63903;BME280;50072;50.678;13.938;2023-07-31T07:18:36;99240.41;;;17.36;100.00
63903;BME280;50072;50.678;13.938;2023-07-31T07:21:01;99236.72;;;17.23;100.00
63903;BME280;50072;50.678;13.938;2023-07-31T07:23:29;99249.72;;;17.16;100.00
63903;BME280;50072;50.678;13.938;2023-07-31T07:25:55;99254.97;;;17.03;100.00
63903;BME280;50072;50.678;13.938;2023-07-31T07:28:32;99247.06;;;17.00;100.00
63903;BME280;50072;50.678;13.938;2023-07-31T07:31:03;99243.19;;;17.04;100.00
63903;BME280;50072;50.678;13.938;2023-07-31T07:33:46;99253.84;;;16.91;100.00
63903;BME280;50072;50.678;13.938;2023-07-31T07:36:17;99256.47;;;16.93;100.00
63903;BME280;50072;50.678;13.938;2023-07-31T07:38:46;99252.63;;;16.97;100.00
63903;BME280;50072;50.678;13.938;2023-07-31T07:41:21;99246.31;;;17.13;100.00
63903;BME280;50072;50.678;13.938;2023-07-31T07:44:01;99248.91;;;17.14;100.00
63903;BME280;50072;50.678;13.938;2023-07-31T07:46:33;99246.91;;;17.18;100.00
63903;BME280;50072;50.678;13.938;2023-07-31T07:49:00;99255.41;;;17.12;100.00
63903;BME280;50072;50.678;13.938;2023-07-31T07:51:25;99251.53;;;17.16;100.00
63903;BME280;50072;50.678;13.938;2023-07-31T07:53:51;99256.22;;;17.28;100.00
63903;BME280;50072;50.678;13.938;2023-07-31T07:56:17;99254.06;;;17.49;100.00
63903;BME280;50072;50.678;13.938;2023-07-31T07:58:43;99243.38;;;17.62;100.00
63903;BME280;50072;50.678;13.938;2023-07-31T08:01:09;99242.63;;;17.74;100.00
63903;BME280;50072;50.678;13.938;2023-07-31T08:03:35;99249.41;;;17.82;100.00
63903;BME280;50072;50.678;13.938;2023-07-31T08:06:01;99256.53;;;17.99;100.00
63903;BME280;50072;50.678;13.938;2023-07-31T08:08:28;99249.84;;;18.04;100.00
63903;BME280;50072;50.678;13.938;2023-07-31T08:10:54;99249.66;;;18.22;100.00
63903;BME280;50072;50.678;13.938;2023-07-31T08:13:20;99239.28;;;18.43;100.00
63903;BME280;50072;50.678;13.938;2023-07-31T08:15:45;99233.72;;;18.59;99.84
63903;BME280;50072;50.678;13.938;2023-07-31T08:18:11;99240.56;;;18.79;99.25
63903;BME280;50072;50.678;13.938;2023-07-31T08:20:37;99238.81;;;18.78;97.93
63903;BME280;50072;50.678;13.938;2023-07-31T08:23:03;99235.97;;;18.52;96.82
63903;BME280;50072;50.678;13.938;2023-07-31T08:25:29;99243.31;;;18.65;96.73
63903;BME280;50072;50.678;13.938;2023-07-31T08:27:56;99244.69;;;18.85;98.84
63903;BME280;50072;50.678;13.938;2023-07-31T08:30:21;99245.09;;;18.93;97.15
63903;BME280;50072;50.678;13.938;2023-07-31T08:32:47;99245.28;;;18.75;96.44
63903;BME280;50072;50.678;13.938;2023-07-31T08:35:13;99244.44;;;18.75;98.00
63903;BME280;50072;50.678;13.938;2023-07-31T08:37:39;99245.69;;;18.69;95.40
63903;BME280;50072;50.678;13.938;2023-07-31T08:40:05;99232.84;;;18.73;97.94
63903;BME280;50072;50.678;13.938;2023-07-31T08:42:32;99242.44;;;18.50;96.97
63903;BME280;50072;50.678;13.938;2023-07-31T08:44:59;99229.03;;;18.75;97.59
63903;BME280;50072;50.678;13.938;2023-07-31T08:47:26;99237.25;;;18.88;98.00
63903;BME280;50072;50.678;13.938;2023-07-31T08:49:52;99227.50;;;18.71;93.88
63903;BME280;50072;50.678;13.938;2023-07-31T08:52:19;99236.22;;;18.62;95.30
63903;BME280;50072;50.678;13.938;2023-07-31T08:54:45;99235.66;;;18.57;95.83
63903;BME280;50072;50.678;13.938;2023-07-31T08:57:11;99228.47;;;18.70;96.57
63903;BME280;50072;50.678;13.938;2023-07-31T08:59:38;99233.97;;;18.83;95.59
63903;BME280;50072;50.678;13.938;2023-07-31T09:02:08;99230.47;;;18.81;95.53
63903;BME280;50072;50.678;13.938;2023-07-31T09:04:34;99233.78;;;18.72;95.13
63903;BME280;50072;50.678;13.938;2023-07-31T09:07:02;99224.44;;;18.63;97.32
63903;BME280;50072;50.678;13.938;2023-07-31T09:09:32;99225.69;;;18.57;96.98
63903;BME280;50072;50.678;13.938;2023-07-31T09:11:59;99225.22;;;18.51;96.63
63903;BME280;50072;50.678;13.938;2023-07-31T09:14:25;99229.38;;;18.56;95.33
63903;BME280;50072;50.678;13.938;2023-07-31T09:16:56;99216.66;;;18.71;96.00
63903;BME280;50072;50.678;13.938;2023-07-31T09:19:26;99221.16;;;18.85;96.37
63903;BME280;50072;50.678;13.938;2023-07-31T09:21:54;99227.47;;;19.13;95.14
63903;BME280;50072;50.678;13.938;2023-07-31T09:24:30;99224.19;;;19.08;94.94
63903;BME280;50072;50.678;13.938;2023-07-31T09:26:57;99227.84;;;18.94;95.24
63903;BME280;50072;50.678;13.938;2023-07-31T09:29:28;99224.56;;;18.89;95.95
63903;BME280;50072;50.678;13.938;2023-07-31T09:31:55;99232.09;;;18.98;94.77
63903;BME280;50072;50.678;13.938;2023-07-31T09:34:30;99233.28;;;19.21;94.91
63903;BME280;50072;50.678;13.938;2023-07-31T09:37:02;99234.22;;;19.20;91.31
63903;BME280;50072;50.678;13.938;2023-07-31T09:39:29;99230.91;;;19.02;92.28
63903;BME280;50072;50.678;13.938;2023-07-31T09:41:55;99223.63;;;19.30;92.37
63903;BME280;50072;50.678;13.938;2023-07-31T09:44:37;99219.38;;;19.92;91.12
63903;BME280;50072;50.678;13.938;2023-07-31T09:47:03;99209.81;;;19.99;87.55
63903;BME280;50072;50.678;13.938;2023-07-31T09:49:29;99211.94;;;20.32;92.41
63903;BME280;50072;50.678;13.938;2023-07-31T09:51:55;99212.56;;;20.36;84.19
63903;BME280;50072;50.678;13.938;2023-07-31T09:54:21;99201.63;;;20.12;86.52
63903;BME280;50072;50.678;13.938;2023-07-31T09:56:48;99206.16;;;20.37;86.35
63903;BME280;50072;50.678;13.938;2023-07-31T09:59:18;99217.44;;;20.69;83.08
63903;BME280;50072;50.678;13.938;2023-07-31T10:01:46;99206.69;;;20.92;83.18
63903;BME280;50072;50.678;13.938;2023-07-31T10:04:12;99190.41;;;20.79;82.74
63903;BME280;50072;50.678;13.938;2023-07-31T10:06:40;99184.72;;;21.07;81.82
63903;BME280;50072;50.678;13.938;2023-07-31T10:09:09;99180.38;;;20.43;84.44
63903;BME280;50072;50.678;13.938;2023-07-31T10:11:41;99180.56;;;20.52;85.45
63903;BME280;50072;50.678;13.938;2023-07-31T10:14:07;99181.00;;;20.46;85.48
63903;BME280;50072;50.678;13.938;2023-07-31T10:16:34;99186.44;;;20.46;83.88
63903;BME280;50072;50.678;13.938;2023-07-31T10:19:01;99178.66;;;20.66;83.61
63903;BME280;50072;50.678;13.938;2023-07-31T10:21:27;99167.16;;;20.75;81.94
63903;BME280;50072;50.678;13.938;2023-07-31T10:23:55;99164.06;;;21.51;79.74
63903;BME280;50072;50.678;13.938;2023-07-31T10:26:23;99162.06;;;22.34;74.80
63903;BME280;50072;50.678;13.938;2023-07-31T10:28:50;99169.06;;;23.56;70.83
63903;BME280;50072;50.678;13.938;2023-07-31T10:31:18;99151.47;;;24.32;65.71
63903;BME280;50072;50.678;13.938;2023-07-31T10:33:55;99153.75;;;25.07;59.92
63903;BME280;50072;50.678;13.938;2023-07-31T10:36:35;99149.72;;;25.11;57.69
63903;BME280;50072;50.678;13.938;2023-07-31T10:39:03;99140.06;;;25.46;57.95
63903;BME280;50072;50.678;13.938;2023-07-31T10:41:32;99145.44;;;24.48;58.34
63903;BME280;50072;50.678;13.938;2023-07-31T10:44:00;99134.03;;;24.93;58.03
63903;BME280;50072;50.678;13.938;2023-07-31T10:46:32;99129.78;;;24.09;59.45
63903;BME280;50072;50.678;13.938;2023-07-31T10:49:00;99134.16;;;24.92;56.94
63903;BME280;50072;50.678;13.938;2023-07-31T10:51:33;99129.56;;;25.31;55.96
63903;BME280;50072;50.678;13.938;2023-07-31T10:54:13;99126.94;;;24.61;56.19
63903;BME280;50072;50.678;13.938;2023-07-31T10:56:44;99122.63;;;24.98;57.05
63903;BME280;50072;50.678;13.938;2023-07-31T10:59:10;99125.22;;;24.60;55.50
63903;BME280;50072;50.678;13.938;2023-07-31T11:01:50;99122.06;;;25.14;56.13
63903;BME280;50072;50.678;13.938;2023-07-31T11:04:22;99106.66;;;25.03;56.90
63903;BME280;50072;50.678;13.938;2023-07-31T11:06:59;99098.88;;;25.08;56.23
63903;BME280;50072;50.678;13.938;2023-07-31T11:09:34;99090.66;;;24.98;55.73
63903;BME280;50072;50.678;13.938;2023-07-31T11:12:00;99095.41;;;26.84;51.54
63903;BME280;50072;50.678;13.938;2023-07-31T11:14:26;99088.38;;;27.26;49.41
63903;BME280;50072;50.678;13.938;2023-07-31T11:16:52;99093.81;;;27.62;48.60
63903;BME280;50072;50.678;13.938;2023-07-31T11:19:26;99084.78;;;27.44;47.20
63903;BME280;50072;50.678;13.938;2023-07-31T11:21:52;99084.44;;;27.99;45.79
63903;BME280;50072;50.678;13.938;2023-07-31T11:24:19;99087.13;;;27.65;46.14
63903;BME280;50072;50.678;13.938;2023-07-31T11:26:52;99072.38;;;27.40;47.20
63903;BME280;50072;50.678;13.938;2023-07-31T11:29:21;99070.31;;;28.45;43.15
63903;BME280;50072;50.678;13.938;2023-07-31T11:31:53;99063.41;;;30.84;41.01
63903;BME280;50072;50.678;13.938;2023-07-31T11:34:18;99063.41;;;29.81;40.78
63903;BME280;50072;50.678;13.938;2023-07-31T11:36:53;99062.66;;;28.22;44.05
63903;BME280;50072;50.678;13.938;2023-07-31T11:39:20;99057.28;;;27.26;45.38
63903;BME280;50072;50.678;13.938;2023-07-31T11:41:46;99049.66;;;26.57;46.91
63903;BME280;50072;50.678;13.938;2023-07-31T11:44:11;99046.75;;;25.57;50.33
63903;BME280;50072;50.678;13.938;2023-07-31T11:46:38;99051.31;;;24.99;52.36
63903;BME280;50072;50.678;13.938;2023-07-31T11:49:04;99053.03;;;24.52;54.50
63903;BME280;50072;50.678;13.938;2023-07-31T11:51:31;99049.22;;;24.04;56.26
63903;BME280;50072;50.678;13.938;2023-07-31T11:53:58;99061.78;;;23.54;60.05
63903;BME280;50072;50.678;13.938;2023-07-31T11:56:26;99052.50;;;22.93;64.11
63903;BME280;50072;50.678;13.938;2023-07-31T11:58:58;99061.41;;;22.42;65.72
63903;BME280;50072;50.678;13.938;2023-07-31T12:01:26;99065.44;;;22.04;66.88
63903;BME280;50072;50.678;13.938;2023-07-31T12:03:53;99057.84;;;22.19;67.68
63903;BME280;50072;50.678;13.938;2023-07-31T12:06:19;99062.59;;;22.61;64.19
63903;BME280;50072;50.678;13.938;2023-07-31T12:08:48;99048.34;;;22.78;63.94
63903;BME280;50072;50.678;13.938;2023-07-31T12:11:14;99056.78;;;23.07;62.85
63903;BME280;50072;50.678;13.938;2023-07-31T12:13:40;99051.13;;;23.51;59.75
63903;BME280;50072;50.678;13.938;2023-07-31T12:16:06;99055.88;;;23.80;57.68
63903;BME280;50072;50.678;13.938;2023-07-31T12:18:37;99044.13;;;25.08;53.10
63903;BME280;50072;50.678;13.938;2023-07-31T12:21:07;99042.91;;;25.30;52.75
63903;BME280;50072;50.678;13.938;2023-07-31T12:23:34;99032.72;;;24.35;54.40
63903;BME280;50072;50.678;13.938;2023-07-31T12:26:03;99028.91;;;23.97;55.53
63903;BME280;50072;50.678;13.938;2023-07-31T12:28:29;99035.84;;;24.10;56.53
63903;BME280;50072;50.678;13.938;2023-07-31T12:31:00;99016.56;;;24.12;54.48
63903;BME280;50072;50.678;13.938;2023-07-31T12:33:33;99014.44;;;23.44;56.83
63903;BME280;50072;50.678;13.938;2023-07-31T12:36:02;99018.28;;;23.32;57.10
63903;BME280;50072;50.678;13.938;2023-07-31T12:38:29;99013.34;;;23.25;56.26
63903;BME280;50072;50.678;13.938;2023-07-31T12:40:55;99015.28;;;25.61;49.69
63903;BME280;50072;50.678;13.938;2023-07-31T12:43:21;99005.41;;;26.42;48.33
63903;BME280;50072;50.678;13.938;2023-07-31T12:45:46;99009.44;;;26.30;47.92
63903;BME280;50072;50.678;13.938;2023-07-31T12:48:13;99008.03;;;25.70;47.80